Selawik, AK

6:05 AM AKDT on August 29, 2014 (GMT -0800)
Selawik | Change Station
CLOSE
Current Station
Airport
Location: Selawik,
Elevation: 26 ft
Nearby Weather Stations
Active Advisory: Special Statement Active Notice: Record Report

Elev 26 ft 66.60 °N, 159.99 °W | Updated 9 minutes ago

Clear
Clear
39 °F
Feels Like 32 °F
N
13
Wind Variable Wind from WNW

Today
High -- | Low -- °F
--% Chance of Precip.
Yesterday
High -- | Low -- °F
Precip. -- in
7:03 AM 10:15 PM
Waxing Crescent, 14% visible
Pressure 29.67 in
Visibility 10.0 miles
Clouds Clear
Windchill 32 °F
Dew Point 32 °F
Humidity 75%
Rainfall 0.00 in
Snow Depth Not available.
UV 0 out of 12
Pollen Not available.
Air Quality Not available.
Flu Activity Not available.
METAR PASK 291356Z AUTO 29011KT 10SM CLR 04/00 A2967 RMK AO1

More Conditions Fewer Conditions

Pressure 29.67 in
Visibility 10.0 miles
Clouds Clear
Windchill 32 °F
Dew Point 32 °F
Humidity 75%
Rainfall 0.00 in
Snow Depth Not available.
UV 0 out of 12
Pollen Not available.
Air Quality Not available.
Flu Activity Not available.
METAR PASK 291356Z AUTO 29011KT 10SM CLR 04/00 A2967 RMK AO1

More Conditions Fewer Conditions

10-Day Weather Forecast

Almanac

Astronomy

Aug. 29, 2014 Rise Set
Actual Time 7:03 AM AKDT 10:15 PM AKDT
Civil Twilight 6:00 AM AKDT 11:17 PM AKDT
Nautical Twilight 4:20 AM AKDT 12:54 AM AKDT
Astronomical Twilight Sun does not rise Sun does not rise
Moon 1:03 PM AKDT 10:14 PM AKDT
Length of Visible Light 17h 16m
Length of Day
15h 12m
Tomorrow will be 7m 26s shorter.
Waxing Crescent, 14% of the Moon is Illuminated
Today
Waxing Crescent
Sep 2
First Quarter
Sep 8
Full
Sep 15
Last Quarter
Sep 24
New

Today's Extremes

State Highs State Lows

Community

WunderPhotos

Upload Photos

1,748,240 photos uploaded!

Nearby

Snow Depth

Station Depth Elevation
Rocky Point 5 in 500 ft
Gobblers Knob 0 in 2030 ft
Coldfoot 1 in 1040 ft
Atigun Pass 0 in 4800 ft
Imnaviat Creek 31 in 3050 ft

Earthquake Activity

City Distance Mag. Time & Date
No recent earthquake activity has been reported nearby.
Minimum magnitude displayed is 2.5.

Coastal Water Temperatures

Place Temperature
No Stations Reporting

Nearby Weather Stations